createdAt,value
2019-02-04T00:00:45.088Z,-0.50
2019-02-04T00:05:01.901Z,-0.60
2019-02-04T00:09:18.371Z,-0.60
2019-02-04T00:13:34.858Z,-0.50
2019-02-04T00:17:51.952Z,-0.50
2019-02-04T00:22:08.421Z,-0.40
2019-02-04T00:26:24.822Z,-0.40
2019-02-04T00:30:41.499Z,-0.30
2019-02-04T00:34:57.989Z,-0.40
2019-02-04T00:39:14.508Z,-0.40
2019-02-04T00:43:31.370Z,-0.50
2019-02-04T00:47:47.834Z,-0.50
2019-02-04T00:52:04.349Z,-0.50
2019-02-04T00:56:20.852Z,-0.50
2019-02-04T01:00:37.696Z,-0.50
2019-02-04T01:04:54.206Z,-0.40
2019-02-04T01:09:10.692Z,-0.40
2019-02-04T01:13:27.139Z,-0.40
2019-02-04T01:17:43.681Z,-0.40
2019-02-04T01:22:00.164Z,-0.40
2019-02-04T01:26:16.955Z,-0.40
2019-02-04T01:30:33.746Z,-0.30
2019-02-04T01:34:50.573Z,-0.40
2019-02-04T01:39:07.543Z,-0.40
2019-02-04T01:43:23.982Z,-0.40
2019-02-04T01:47:40.743Z,-0.50
2019-02-04T01:51:57.186Z,-0.50
2019-02-04T01:56:14.074Z,-0.60
2019-02-04T02:00:34.226Z,-0.50
2019-02-04T02:04:50.742Z,-0.60
2019-02-04T02:09:09.164Z,-0.60
2019-02-04T02:13:25.613Z,-0.60
2019-02-04T02:17:42.102Z,-0.60
2019-02-04T02:21:58.837Z,-0.70
2019-02-04T02:26:15.518Z,-0.70
2019-02-04T02:30:32.001Z,-0.70
2019-02-04T02:34:48.498Z,-0.80
2019-02-04T02:39:06.804Z,-0.70
2019-02-04T02:43:23.282Z,-0.70
2019-02-04T02:47:39.793Z,-0.70
2019-02-04T02:51:56.435Z,-0.80
2019-02-04T02:56:13.306Z,-0.80
2019-02-04T03:00:30.038Z,-0.80
2019-02-04T03:04:46.607Z,-0.90
2019-02-04T03:09:05.741Z,-0.80
2019-02-04T03:13:22.168Z,-0.80
2019-02-04T03:17:50.534Z,-0.80
2019-02-04T03:21:57.278Z,-0.80
2019-02-04T03:26:13.802Z,-0.90
2019-02-04T03:30:31.584Z,-0.90
2019-02-04T03:34:48.026Z,-1.00
2019-02-04T03:39:05.463Z,-1.10
2019-02-04T03:43:22.023Z,-1.20
2019-02-04T03:47:38.497Z,-1.30
2019-02-04T03:51:55.118Z,-1.30
2019-02-04T03:56:11.647Z,-1.30
2019-02-04T04:00:30.859Z,-1.20
2019-02-04T04:04:47.309Z,-1.20
2019-02-04T04:09:05.174Z,-1.10
2019-02-04T04:13:21.695Z,-1.10
2019-02-04T04:17:38.463Z,-1.10
2019-02-04T04:21:55.369Z,-0.90
2019-02-04T04:26:12.183Z,-0.90
2019-02-04T04:30:28.553Z,-0.90
2019-02-04T04:34:45.706Z,-0.80
2019-02-04T04:39:04.482Z,-0.70
2019-02-04T04:43:21.337Z,-0.70
2019-02-04T04:47:37.872Z,-0.70
2019-02-04T04:51:54.664Z,-0.60
2019-02-04T04:56:11.159Z,-0.60
2019-02-04T05:00:29.585Z,-0.60
2019-02-04T05:04:46.361Z,-0.60
2019-02-04T05:09:05.458Z,-0.60
2019-02-04T05:13:24.279Z,-0.60
2019-02-04T05:17:40.876Z,-0.60
2019-02-04T05:21:57.427Z,-0.60
2019-02-04T05:26:14.151Z,-0.60
2019-02-04T05:30:30.656Z,-0.60
2019-02-04T05:34:47.253Z,-0.60
2019-02-04T05:39:05.863Z,-0.70
2019-02-04T05:43:22.353Z,-0.70
2019-02-04T05:47:38.859Z,-0.70
2019-02-04T05:51:56.290Z,-0.80
2019-02-04T05:56:12.798Z,-0.80
2019-02-04T06:00:34.426Z,-0.90
2019-02-04T06:04:50.918Z,-1.00
2019-02-04T06:09:07.438Z,-1.10
2019-02-04T06:13:23.905Z,-1.10
2019-02-04T06:17:40.372Z,-1.30
2019-02-04T06:21:56.814Z,-1.40
2019-02-04T06:26:13.578Z,-1.60
2019-02-04T06:30:30.055Z,-1.80
2019-02-04T06:34:46.402Z,-1.90
2019-02-04T06:39:06.648Z,-2.10
2019-02-04T06:43:23.315Z,-2.20
2019-02-04T06:47:39.753Z,-2.30
2019-02-04T06:51:56.169Z,-2.50
2019-02-04T06:56:12.881Z,-2.50
2019-02-04T07:00:29.378Z,-2.60
2019-02-04T07:04:46.178Z,-2.80
2019-02-04T07:09:06.925Z,-2.90
2019-02-04T07:13:23.336Z,-3.00
2019-02-04T07:17:39.744Z,-3.20
2019-02-04T07:21:56.219Z,-3.30
2019-02-04T07:26:13.458Z,-3.40
2019-02-04T07:30:29.880Z,-3.40
2019-02-04T07:34:46.293Z,-3.50
2019-02-04T07:39:05.390Z,-3.50
2019-02-04T07:43:21.813Z,-3.60
2019-02-04T07:47:38.217Z,-3.70
2019-02-04T07:51:55.031Z,-3.80
2019-02-04T07:56:11.431Z,-3.80
2019-02-04T08:00:30.748Z,-3.80
2019-02-04T08:04:47.222Z,-3.60
2019-02-04T08:09:06.317Z,-3.40
2019-02-04T08:13:22.757Z,-3.20
2019-02-04T08:17:39.121Z,-2.80
2019-02-04T08:21:55.538Z,-2.50
2019-02-04T08:26:12.074Z,-2.20
2019-02-04T08:30:31.486Z,-1.80
2019-02-04T08:34:47.866Z,-1.50
2019-02-04T08:39:06.080Z,-1.20
2019-02-04T08:43:22.486Z,-0.90
2019-02-04T08:47:38.953Z,-0.60
2019-02-04T08:51:55.377Z,-0.40
2019-02-04T08:56:13.091Z,-0.20
2019-02-04T09:00:29.879Z,0.00
2019-02-04T09:04:46.304Z,0.10
2019-02-04T09:09:05.966Z,0.20
2019-02-04T09:13:22.471Z,0.30
2019-02-04T09:17:39.244Z,0.50
2019-02-04T09:21:55.705Z,0.60
2019-02-04T09:26:12.509Z,0.70
2019-02-04T09:30:28.935Z,0.80
2019-02-04T09:34:45.574Z,0.90
2019-02-04T09:39:04.485Z,1.00
2019-02-04T09:43:20.879Z,1.00
2019-02-04T09:47:37.469Z,1.10
2019-02-04T09:52:02.691Z,1.10
2019-02-04T09:56:19.103Z,1.10
2019-02-04T10:00:36.280Z,1.20
2019-02-04T10:04:53.058Z,1.30
2019-02-04T10:09:09.785Z,1.30
2019-02-04T10:13:26.256Z,1.40
2019-02-04T10:17:44.011Z,1.50
2019-02-04T10:22:00.676Z,1.60
2019-02-04T10:26:17.052Z,1.70
2019-02-04T10:30:33.458Z,1.70
2019-02-04T10:34:49.933Z,1.70
2019-02-04T10:39:06.598Z,1.80
2019-02-04T10:43:23.123Z,1.90
2019-02-04T10:47:39.945Z,2.00
2019-02-04T10:51:56.577Z,2.00
2019-02-04T10:56:13.010Z,2.10
2019-02-04T11:00:32.189Z,2.10
2019-02-04T11:04:48.638Z,2.10
2019-02-04T11:09:06.517Z,2.10
2019-02-04T11:13:23.000Z,2.10
2019-02-04T11:17:39.397Z,2.00
2019-02-04T11:21:56.158Z,2.00
2019-02-04T11:26:12.585Z,1.90
2019-02-04T11:30:38.138Z,1.90
2019-02-04T11:34:54.866Z,1.90
2019-02-04T11:39:11.576Z,1.90
2019-02-04T11:43:28.000Z,1.80
2019-02-04T11:47:44.599Z,1.80
2019-02-04T11:52:01.405Z,1.80
2019-02-04T11:56:18.133Z,1.80
2019-02-04T12:00:34.887Z,1.80
2019-02-04T12:04:51.282Z,1.90
2019-02-04T12:09:08.055Z,2.00
2019-02-04T12:13:24.524Z,1.90
2019-02-04T12:17:40.922Z,2.00
2019-02-04T12:21:57.364Z,2.20
2019-02-04T12:26:14.174Z,2.40
2019-02-04T12:30:35.409Z,2.60
2019-02-04T12:34:51.830Z,2.80
2019-02-04T12:39:10.181Z,2.90
2019-02-04T12:43:26.586Z,3.00
2019-02-04T12:47:42.972Z,3.00
2019-02-04T12:51:59.603Z,3.00
2019-02-04T12:56:16.139Z,3.20
2019-02-04T13:00:32.705Z,3.30
2019-02-04T13:04:49.407Z,3.50
2019-02-04T13:09:06.786Z,3.80
2019-02-04T13:13:23.252Z,3.80
2019-02-04T13:17:39.953Z,3.30
2019-02-04T13:21:56.371Z,2.70
2019-02-04T13:26:12.895Z,2.30
2019-02-04T13:30:30.256Z,2.00
2019-02-04T13:34:46.681Z,1.90
2019-02-04T13:39:03.577Z,1.80
2019-02-04T13:43:20.247Z,1.70
2019-02-04T13:47:38.482Z,1.60
2019-02-04T13:51:57.519Z,1.50
2019-02-04T13:56:13.434Z,1.50
2019-02-04T14:00:29.834Z,1.40
2019-02-04T14:04:46.511Z,1.40
2019-02-04T14:09:06.523Z,1.40
2019-02-04T14:13:23.259Z,1.30
2019-02-04T14:17:39.842Z,1.30
2019-02-04T14:21:56.318Z,1.30
2019-02-04T14:26:12.715Z,1.30
2019-02-04T14:30:34.422Z,1.30
2019-02-04T14:34:51.385Z,1.30
2019-02-04T14:39:10.321Z,1.30
2019-02-04T14:43:29.072Z,1.20
2019-02-04T14:48:03.214Z,1.20
2019-02-04T14:52:38.977Z,1.20
2019-02-04T14:57:02.182Z,1.20
2019-02-04T15:01:31.486Z,1.20
2019-02-04T15:06:03.475Z,1.10
2019-02-04T15:10:26.673Z,1.00
2019-02-04T15:14:50.129Z,0.90
2019-02-04T15:19:38.492Z,0.80
2019-02-04T15:24:08.482Z,0.60
2019-02-04T15:28:42.389Z,0.40
2019-02-04T15:33:12.634Z,0.30
2019-02-04T15:37:49.673Z,0.10
2019-02-04T15:42:12.911Z,0.00
2019-02-04T15:46:48.671Z,-0.20
2019-02-04T15:51:15.634Z,-0.30
2019-02-04T15:55:32.025Z,-0.40
2019-02-04T15:59:48.563Z,-0.50
2019-02-04T16:04:27.201Z,-0.60
2019-02-04T16:08:43.942Z,-0.70
2019-02-04T16:13:00.408Z,-0.80
2019-02-04T16:17:16.960Z,-0.90
2019-02-04T16:21:34.220Z,-1.00
2019-02-04T16:25:50.853Z,-1.20
2019-02-04T16:30:16.127Z,-1.30
2019-02-04T16:34:32.634Z,-1.40
2019-02-04T16:38:49.483Z,-1.70
2019-02-04T16:43:05.974Z,-1.90
2019-02-04T16:47:22.967Z,-2.10
2019-02-04T16:51:39.525Z,-2.20
2019-02-04T16:55:56.030Z,-2.30
2019-02-04T17:00:23.965Z,-2.40
2019-02-04T17:04:40.665Z,-2.60
2019-02-04T17:08:57.417Z,-2.80
2019-02-04T17:13:13.828Z,-3.00
2019-02-04T17:17:30.712Z,-3.10
2019-02-04T17:21:47.742Z,-3.20
2019-02-04T17:26:04.551Z,-3.30
2019-02-04T17:30:24.929Z,-3.40
2019-02-04T17:34:41.439Z,-3.50
2019-02-04T17:38:58.298Z,-3.50
2019-02-04T17:43:14.790Z,-3.60
2019-02-04T17:47:32.528Z,-3.70
2019-02-04T17:51:49.094Z,-3.80
2019-02-04T17:56:05.582Z,-3.90
2019-02-04T18:00:31.469Z,-3.90
2019-02-04T18:04:48.266Z,-4.10
2019-02-04T18:09:08.002Z,-4.20
2019-02-04T18:13:24.855Z,-4.20
2019-02-04T18:17:41.299Z,-4.30
2019-02-04T18:21:58.079Z,-4.30
2019-02-04T18:26:14.605Z,-4.40
2019-02-04T18:30:31.249Z,-4.40
2019-02-04T18:34:51.456Z,-4.40
2019-02-04T18:39:08.354Z,-4.40
2019-02-04T18:43:28.092Z,-4.50
2019-02-04T18:47:45.906Z,-4.60
2019-02-04T18:52:05.450Z,-4.60
2019-02-04T18:56:26.999Z,-4.60
2019-02-04T19:00:43.574Z,-4.60
2019-02-04T19:05:00.466Z,-4.60
2019-02-04T19:09:17.272Z,-4.70
2019-02-04T19:13:36.569Z,-4.70
2019-02-04T19:18:00.098Z,-4.70
2019-02-04T19:22:18.793Z,-4.80
2019-02-04T19:26:35.728Z,-4.90
2019-02-04T19:31:00.228Z,-4.90
2019-02-04T19:35:18.963Z,-5.00
2019-02-04T19:39:35.689Z,-5.10
2019-02-04T19:43:53.317Z,-5.10
2019-02-04T19:48:11.987Z,-5.20
2019-02-04T19:52:30.356Z,-5.20
2019-02-04T19:56:47.228Z,-5.30
2019-02-04T20:01:07.054Z,-5.30
2019-02-04T20:05:25.741Z,-5.30
2019-02-04T20:09:45.908Z,-5.30
2019-02-04T20:14:05.699Z,-5.30
2019-02-04T20:18:24.444Z,-5.30
2019-02-04T20:22:42.710Z,-5.30
2019-02-04T20:27:01.545Z,-5.30
2019-02-04T20:31:20.289Z,-5.20
2019-02-04T20:35:37.544Z,-5.30
2019-02-04T20:39:55.956Z,-5.30
2019-02-04T20:44:12.527Z,-5.20
2019-02-04T20:48:29.087Z,-5.20
2019-02-04T20:52:47.462Z,-5.10
2019-02-04T20:57:04.266Z,-4.90
2019-02-04T21:01:20.682Z,-4.80
2019-02-04T21:05:37.276Z,-4.80
2019-02-04T21:09:53.785Z,-4.90
2019-02-04T21:14:10.346Z,-5.00
2019-02-04T21:18:26.756Z,-5.00
2019-02-04T21:22:43.623Z,-5.00
2019-02-04T21:27:00.393Z,-5.00
2019-02-04T21:31:17.216Z,-4.90
2019-02-04T21:35:33.649Z,-4.80
2019-02-04T21:39:50.077Z,-4.70
2019-02-04T21:44:06.483Z,-4.60
2019-02-04T21:48:22.909Z,-4.50
2019-02-04T21:52:39.794Z,-4.50
2019-02-04T21:56:57.007Z,-4.50
2019-02-04T22:01:13.419Z,-4.50
2019-02-04T22:05:32.327Z,-4.50
2019-02-04T22:09:49.077Z,-4.50
2019-02-04T22:14:05.790Z,-4.50
2019-02-04T22:18:22.319Z,-4.40
2019-02-04T22:22:39.405Z,-4.40
2019-02-04T22:26:56.144Z,-4.40
2019-02-04T22:31:12.550Z,-4.40
2019-02-04T22:35:29.255Z,-4.30
2019-02-04T22:39:46.635Z,-4.30
2019-02-04T22:44:03.333Z,-4.30
2019-02-04T22:48:19.793Z,-4.30
2019-02-04T22:52:37.377Z,-4.30
2019-02-04T22:56:53.831Z,-4.30
2019-02-04T23:01:26.826Z,-4.30
2019-02-04T23:05:43.754Z,-4.20
2019-02-04T23:10:00.287Z,-4.00
2019-02-04T23:14:17.137Z,-3.80
2019-02-04T23:18:34.018Z,-3.60
2019-02-04T23:22:50.778Z,-3.50
2019-02-04T23:27:07.273Z,-3.50
2019-02-04T23:31:24.216Z,-3.50
2019-02-04T23:35:40.617Z,-3.50
2019-02-04T23:39:57.278Z,-3.50
2019-02-04T23:44:13.715Z,-3.40
2019-02-04T23:48:30.130Z,-3.30
2019-02-04T23:52:46.929Z,-3.10
2019-02-04T23:57:03.419Z,-3.00
